Time;durP1;ratioP1;P1;durP2;ratioP2;P2;SDS_P1;SDS_P2;PMS_P1;PMS_P2;Temp;Humidity;BMP_temperature;BMP_pressure;BME280_temperature;BME280_humidity;BME280_pressure;Samples;Min_cycle;Max_cycle;Signal;HPM_P1;HPM_P2
2022/04/14 00:00:59;;;;;;;7.10;5.13;;;;;;;11.84;47.25;95003.66;5050551;28;20662;-77
2022/04/14 00:03:27;;;;;;;7.00;4.87;;;;;;;11.80;47.24;95001.31;5068098;28;20217;-70
2022/04/14 00:05:54;;;;;;;7.37;5.13;;;;;;;11.78;47.30;95002.41;5070818;28;20186;-77
2022/04/14 00:08:21;;;;;;;6.97;4.60;;;;;;;11.74;47.29;95009.56;5070242;28;20333;-73
2022/04/14 00:10:48;;;;;;;6.00;4.60;;;;;;;11.72;47.32;95008.06;5070887;28;20183;-78
2022/04/14 00:13:16;;;;;;;5.57;4.43;;;;;;;11.73;47.01;95004.56;5069995;28;20182;-76
2022/04/14 00:15:43;;;;;;;6.90;4.20;;;;;;;11.68;47.10;95004.97;5070527;28;20187;-77
2022/04/14 00:18:10;;;;;;;10.00;4.43;;;;;;;11.61;47.28;94992.84;5069797;28;20190;-74
2022/04/14 00:20:38;;;;;;;10.37;5.27;;;;;;;11.63;47.22;94998.66;5070259;28;20187;-77
2022/04/14 00:23:05;;;;;;;5.80;4.40;;;;;;;11.62;47.24;94994.47;5070793;28;20186;-72
2022/04/14 00:25:32;;;;;;;8.17;4.67;;;;;;;11.59;47.17;94993.00;5069991;28;20194;-71
2022/04/14 00:27:59;;;;;;;5.63;4.03;;;;;;;11.58;47.46;94998.25;5070322;28;20183;-73
2022/04/14 00:30:26;;;;;;;7.10;4.00;;;;;;;11.55;47.55;94997.56;5069969;28;20671;-74
2022/04/14 00:32:53;;;;;;;5.23;4.00;;;;;;;11.53;47.81;95006.34;5070071;28;20213;-72
2022/04/14 00:35:20;;;;;;;7.00;4.40;;;;;;;11.50;47.67;95004.84;5069934;28;20599;-70
2022/04/14 00:37:48;;;;;;;5.40;4.23;;;;;;;11.47;47.67;95002.56;5070150;28;20217;-69
2022/04/14 00:40:15;;;;;;;6.80;4.10;;;;;;;11.48;47.69;95000.81;5069754;28;20203;-72
2022/04/14 00:42:42;;;;;;;6.37;4.27;;;;;;;11.45;47.80;95001.91;5070261;28;20186;-71
2022/04/14 00:45:09;;;;;;;6.07;4.50;;;;;;;11.42;47.80;95004.72;5069689;28;20190;-73
2022/04/14 00:47:36;;;;;;;6.93;4.00;;;;;;;11.44;47.98;95009.69;5070068;28;20190;-72
2022/04/14 00:50:04;;;;;;;6.13;4.40;;;;;;;11.41;48.05;95010.00;5069153;28;20646;-73
2022/04/14 00:52:31;;;;;;;7.20;4.77;;;;;;;11.38;48.33;95008.50;5070009;28;20182;-78
2022/04/14 00:55:00;;;;;;;10.93;4.43;;;;;;;11.37;48.22;95009.44;5069664;28;20225;-72
2022/04/14 00:57:27;;;;;;;8.10;4.53;;;;;;;11.32;48.08;95005.69;5069857;28;20217;-75
2022/04/14 00:59:54;;;;;;;6.83;4.47;;;;;;;11.27;48.16;95006.88;5069822;28;20725;-73
2022/04/14 01:02:21;;;;;;;8.03;4.63;;;;;;;11.32;48.21;95010.81;5069660;28;20198;-70
2022/04/14 01:04:49;;;;;;;5.07;4.10;;;;;;;11.30;48.19;95013.47;5069785;28;20194;-73
2022/04/14 01:07:16;;;;;;;10.70;4.50;;;;;;;11.27;48.27;95012.00;5069315;28;20685;-70
2022/04/14 01:09:44;;;;;;;9.37;4.27;;;;;;;11.24;48.20;95007.16;5069655;28;20237;-71
2022/04/14 01:12:13;;;;;;;13.30;4.93;;;;;;;11.25;48.26;95013.88;5069565;28;20190;-71
2022/04/14 01:14:40;;;;;;;8.80;4.53;;;;;;;11.21;48.29;95011.72;5069708;28;20229;-71
2022/04/14 01:17:09;;;;;;;7.43;4.40;;;;;;;11.22;48.30;95013.31;5069316;28;20192;-71
2022/04/14 01:19:37;;;;;;;14.30;4.93;;;;;;;11.19;48.23;95016.19;5069583;28;20190;-71
2022/04/14 01:22:08;;;;;;;10.97;5.07;;;;;;;11.16;48.55;95011.31;5069214;28;20197;-72
2022/04/14 01:24:36;;;;;;;8.00;4.87;;;;;;;11.15;48.46;95018.19;5069665;28;20723;-73
2022/04/14 01:27:03;;;;;;;7.00;4.53;;;;;;;11.13;48.61;95020.06;5069477;28;20187;-72
2022/04/14 01:29:30;;;;;;;8.13;5.13;;;;;;;11.11;48.51;95024.50;5069527;28;20197;-73
2022/04/14 01:31:59;;;;;;;7.67;5.10;;;;;;;11.11;48.49;95018.59;5069191;28;20198;-73
2022/04/14 01:34:26;;;;;;;9.37;4.37;;;;;;;11.07;48.55;95020.59;5069885;28;20206;-77
2022/04/14 01:36:53;;;;;;;9.07;4.20;;;;;;;11.05;48.58;95015.63;5069523;28;20180;-74
2022/04/14 01:39:19;;;;;;;8.40;5.03;;;;;;;11.04;48.53;95008.88;5069662;28;20187;-76
2022/04/14 01:41:48;;;;;;;6.37;4.40;;;;;;;11.00;48.75;95002.41;5069412;28;20260;-71
2022/04/14 01:44:15;;;;;;;8.23;4.63;;;;;;;11.01;48.75;95006.59;5070019;28;20179;-77
2022/04/14 01:46:42;;;;;;;8.03;4.53;;;;;;;10.97;48.68;95012.91;5069454;28;20182;-74
2022/04/14 01:49:09;;;;;;;10.33;4.43;;;;;;;10.96;48.53;95010.47;5068861;28;20190;-73
2022/04/14 01:51:36;;;;;;;6.93;4.00;;;;;;;10.95;48.66;95012.22;5069681;28;20569;-75
2022/04/14 01:54:04;;;;;;;7.67;4.77;;;;;;;10.91;48.64;95015.97;5069228;28;20210;-72
2022/04/14 01:56:31;;;;;;;5.37;4.17;;;;;;;10.91;48.69;95020.28;5069542;28;20194;-76
2022/04/14 01:58:59;;;;;;;5.80;4.57;;;;;;;10.87;48.82;95018.94;5069150;28;20187;-74
2022/04/14 02:01:26;;;;;;;5.73;4.13;;;;;;;10.83;49.07;95023.50;5070965;28;20582;-77
2022/04/14 02:03:54;;;;;;;8.70;5.00;;;;;;;10.85;48.88;95031.06;5072957;28;20194;-72
2022/04/14 02:06:21;;;;;;;6.13;4.67;;;;;;;10.85;48.85;95037.00;5072940;28;20243;-76
2022/04/14 02:08:48;;;;;;;4.90;4.17;;;;;;;10.84;49.17;95034.53;5072702;28;20750;-77
2022/04/14 02:11:14;;;;;;;6.70;4.93;;;;;;;10.82;49.17;95039.00;5072793;28;20198;-75
2022/04/14 02:13:42;;;;;;;8.50;4.50;;;;;;;10.80;49.28;95045.06;5072879;28;20200;-77
2022/04/14 02:16:11;;;;;;;14.80;5.00;;;;;;;10.77;49.32;95042.75;5072510;28;20229;-77
2022/04/14 02:18:38;;;;;;;8.53;4.67;;;;;;;10.76;49.45;95040.34;5072410;28;20191;-74
2022/04/14 02:21:05;;;;;;;6.40;4.40;;;;;;;10.75;49.47;95034.41;5072653;28;20198;-78
2022/04/14 02:23:32;;;;;;;7.97;4.80;;;;;;;10.73;49.55;95023.47;5072384;28;20190;-78
2022/04/14 02:25:58;;;;;;;7.43;4.43;;;;;;;10.70;49.64;95017.81;5072583;28;20209;-78
2022/04/14 02:28:25;;;;;;;6.97;4.87;;;;;;;10.69;49.63;95016.19;5072603;28;20197;-78
2022/04/14 02:30:52;;;;;;;7.30;4.80;;;;;;;10.66;49.87;95019.81;5072503;28;20191;-77
2022/04/14 02:33:20;;;;;;;12.03;4.70;;;;;;;10.67;49.82;95016.34;5072751;28;20193;-73
2022/04/14 02:35:47;;;;;;;10.07;4.90;;;;;;;10.66;49.98;95013.91;5072027;28;20556;-74
2022/04/14 02:38:14;;;;;;;7.60;4.80;;;;;;;10.64;50.12;95008.13;5072118;28;20277;-74
2022/04/14 02:40:41;;;;;;;7.77;4.93;;;;;;;10.64;50.13;95013.22;5072206;28;20198;-74
2022/04/14 02:43:08;;;;;;;8.13;5.07;;;;;;;10.62;50.07;95015.94;5072201;28;20194;-75
2022/04/14 02:45:35;;;;;;;5.00;4.30;;;;;;;10.61;50.04;95018.59;5071987;28;20190;-72
2022/04/14 02:48:02;;;;;;;6.37;4.90;;;;;;;10.59;50.10;95023.03;5072082;28;20194;-74
2022/04/14 02:50:30;;;;;;;7.43;4.10;;;;;;;10.57;50.18;95027.47;5071667;28;20186;-76
2022/04/14 02:52:57;;;;;;;7.83;5.30;;;;;;;10.57;50.04;95030.81;5072191;28;20190;-74
2022/04/14 02:55:24;;;;;;;7.87;5.00;;;;;;;10.52;50.15;95031.22;5072197;28;20210;-74
2022/04/14 02:57:51;;;;;;;8.23;4.73;;;;;;;10.51;50.01;95027.03;5064028;28;20701;-71
2022/04/14 03:00:18;;;;;;;7.47;4.27;;;;;;;10.49;50.12;95039.16;5052116;28;20194;-73
2022/04/14 03:02:45;;;;;;;8.17;4.53;;;;;;;10.48;50.08;95036.72;5051664;28;20214;-74
2022/04/14 03:05:12;;;;;;;6.83;4.20;;;;;;;10.47;49.86;95035.91;5051642;28;20197;-72
2022/04/14 03:07:40;;;;;;;6.07;4.40;;;;;;;10.43;49.97;95039.66;5051470;28;20191;-72
2022/04/14 03:10:08;;;;;;;8.53;4.27;;;;;;;10.38;49.86;95030.75;5051710;28;20187;-72
2022/04/14 03:12:43;;;;;;;4.97;4.47;;;;;;;10.38;50.11;95033.31;5050874;28;20237;-72
2022/04/14 03:15:11;;;;;;;7.43;4.13;;;;;;;10.36;49.98;95030.88;5051445;28;20277;-74
2022/04/14 03:17:38;;;;;;;8.20;4.50;;;;;;;10.35;50.05;95034.38;5051598;28;20183;-73
2022/04/14 03:20:05;;;;;;;6.17;4.50;;;;;;;10.32;50.01;95029.53;5051263;28;20187;-74
2022/04/14 03:22:34;;;;;;;6.00;4.53;;;;;;;10.31;50.10;95035.56;5051217;28;20195;-72
2022/04/14 03:25:04;;;;;;;6.97;4.40;;;;;;;10.28;50.02;95036.66;5051515;28;20218;-74
2022/04/14 03:27:30;;;;;;;13.17;4.97;;;;;;;10.27;50.22;95040.13;5050995;28;20286;-73
2022/04/14 03:29:57;;;;;;;6.80;3.97;;;;;;;10.26;50.08;95038.50;5051662;28;20236;-71
2022/04/14 03:32:25;;;;;;;5.83;4.20;;;;;;;10.26;50.11;95035.13;5051078;28;20577;-73
2022/04/14 03:34:52;;;;;;;7.83;4.73;;;;;;;10.22;50.06;95034.56;5051038;28;20709;-74
2022/04/14 03:37:19;;;;;;;6.57;4.43;;;;;;;10.21;50.19;95034.69;5050621;28;20243;-75
2022/04/14 03:39:45;;;;;;;6.90;4.40;;;;;;;10.18;50.40;95034.94;5050951;28;20190;-75
2022/04/14 03:42:14;;;;;;;9.60;5.23;;;;;;;10.16;50.35;95047.84;5050882;28;20187;-75
2022/04/14 03:44:41;;;;;;;10.70;5.97;;;;;;;10.17;50.38;95052.00;5050508;28;20565;-75
2022/04/14 03:47:09;;;;;;;6.33;4.20;;;;;;;10.17;50.35;95056.31;5051258;28;20262;-73
2022/04/14 03:49:35;;;;;;;8.97;4.57;;;;;;;10.18;50.38;95047.72;5050535;28;20191;-71
2022/04/14 03:52:02;;;;;;;8.33;5.40;;;;;;;10.13;50.41;95045.53;5051128;28;20227;-77
2022/04/14 03:54:29;;;;;;;6.77;5.43;;;;;;;10.17;50.63;95062.25;5050536;28;20187;-79
2022/04/14 03:56:56;;;;;;;7.90;5.17;;;;;;;10.15;50.69;95050.53;5050729;28;20179;-75
2022/04/14 03:59:24;;;;;;;9.07;5.37;;;;;;;10.18;50.59;95055.38;5051029;28;20186;-73
2022/04/14 04:01:51;;;;;;;12.13;5.60;;;;;;;10.20;50.70;95061.19;5051165;28;20666;-75
2022/04/14 04:04:18;;;;;;;9.80;5.30;;;;;;;10.22;50.89;95066.97;5050429;28;20616;-72
2022/04/14 04:06:45;;;;;;;8.87;5.53;;;;;;;10.22;50.84;95067.78;5050963;28;20187;-76
2022/04/14 04:09:12;;;;;;;11.87;5.50;;;;;;;10.26;50.69;95063.25;5050487;28;20223;-79
2022/04/14 04:11:39;;;;;;;7.50;5.37;;;;;;;10.28;50.62;95049.44;5050789;28;20187;-79
2022/04/14 04:14:06;;;;;;;8.73;5.80;;;;;;;10.33;50.50;95051.59;5051511;28;20268;-78
2022/04/14 04:16:35;;;;;;;9.67;5.60;;;;;;;10.39;50.42;95057.94;5050892;28;20241;-78
2022/04/14 04:19:02;;;;;;;12.00;5.70;;;;;;;10.43;50.18;95057.56;5050319;28;20198;-74
2022/04/14 04:21:30;;;;;;;10.30;5.23;;;;;;;10.52;49.93;95056.78;5050389;28;20195;-77
2022/04/14 04:23:57;;;;;;;13.07;5.47;;;;;;;10.63;49.77;95055.91;5050014;28;20191;-77
2022/04/14 04:26:24;;;;;;;7.87;5.37;;;;;;;10.82;49.51;95062.81;5048890;28;20573;-77
2022/04/14 04:28:51;;;;;;;8.13;6.03;;;;;;;11.08;49.18;95065.72;5050594;28;20203;-83
2022/04/14 04:31:18;;;;;;;9.20;5.43;;;;;;;11.40;48.96;95073.19;5049798;28;20191;-76
2022/04/14 04:33:47;;;;;;;7.00;5.57;;;;;;;11.76;48.41;95076.84;5049863;28;20187;-74
2022/04/14 04:36:14;;;;;;;10.23;5.53;;;;;;;12.20;48.31;95074.66;5049760;28;20313;-76
2022/04/14 04:38:41;;;;;;;9.60;5.93;;;;;;;12.67;48.52;95079.00;5050167;28;20579;-75
2022/04/14 04:41:08;;;;;;;11.83;5.63;;;;;;;13.13;48.17;95080.69;5049975;28;20185;-70
2022/04/14 04:43:35;;;;;;;13.20;6.43;;;;;;;13.57;47.50;95083.41;5039918;28;20203;-73
2022/04/14 04:46:02;;;;;;;10.10;6.37;;;;;;;14.06;47.35;95094.09;5043218;28;20206;-70
2022/04/14 04:48:29;;;;;;;7.47;5.53;;;;;;;14.54;46.25;95100.56;5048070;28;20198;-77
2022/04/14 04:50:58;;;;;;;9.33;5.67;;;;;;;14.97;45.57;95109.16;5045559;28;21723;-70
2022/04/14 04:53:24;;;;;;;11.97;5.73;;;;;;;15.33;45.05;95114.97;5048903;28;20512;-75
2022/04/14 04:55:51;;;;;;;9.40;5.30;;;;;;;15.56;44.04;95107.44;5046513;28;20225;-72
2022/04/14 04:58:18;;;;;;;10.30;5.90;;;;;;;15.84;43.11;95109.75;5046603;28;20194;-77
2022/04/14 05:00:46;;;;;;;11.23;5.57;;;;;;;16.03;42.39;95125.75;5048624;28;20187;-77
2022/04/14 05:03:13;;;;;;;10.33;5.20;;;;;;;16.11;41.56;95122.38;5048736;28;20217;-75
2022/04/14 05:05:41;;;;;;;13.50;6.17;;;;;;;16.23;41.15;95136.53;5049112;28;20230;-74
2022/04/14 05:08:09;;;;;;;14.00;5.57;;;;;;;16.30;40.62;95134.13;5048313;28;20305;-71
2022/04/14 05:10:36;;;;;;;9.97;6.13;;;;;;;16.37;40.24;95135.09;5046670;28;20191;-80
2022/04/14 05:13:03;;;;;;;8.03;5.43;;;;;;;16.50;39.91;95137.19;5048625;28;20183;-74
2022/04/14 05:15:31;;;;;;;10.93;5.60;;;;;;;16.72;39.71;95140.88;5044492;28;20718;-77
2022/04/14 05:17:58;;;;;;;9.23;5.47;;;;;;;16.99;39.57;95126.78;5049007;28;20195;-77
2022/04/14 05:20:25;;;;;;;11.00;5.07;;;;;;;17.42;39.30;95132.44;5048306;28;20203;-73
2022/04/14 05:22:51;;;;;;;7.70;5.03;;;;;;;18.00;38.83;95141.50;5049417;28;20198;-77
2022/04/14 05:25:20;;;;;;;9.07;5.30;;;;;;;18.63;38.50;95147.34;5048476;28;20202;-77
2022/04/14 05:27:46;;;;;;;12.17;5.80;;;;;;;19.21;37.86;95122.44;5048367;28;20195;-75
2022/04/14 05:30:14;;;;;;;9.00;6.13;;;;;;;20.07;37.03;95141.59;5048554;28;20554;-76
2022/04/14 05:32:41;;;;;;;10.57;6.03;;;;;;;20.88;36.13;95136.09;5049176;28;20562;-72
2022/04/14 05:35:09;;;;;;;12.17;6.30;;;;;;;21.67;35.29;95146.09;5050886;28;20199;-81
2022/04/14 05:37:37;;;;;;;15.57;6.00;;;;;;;22.48;34.70;95156.53;5053840;28;20940;-75
2022/04/14 05:40:05;;;;;;;10.33;6.37;;;;;;;23.26;33.25;95148.84;5056752;28;20325;-76
2022/04/14 05:42:34;;;;;;;8.13;5.70;;;;;;;24.05;32.33;95152.97;5052251;28;20191;-75
2022/04/14 05:51:38;;;;;;;8.38;5.38;;;;;;;26.65;28.97;95154.50;5015064;28;20279;-77
2022/04/14 05:54:05;;;;;;;14.60;5.97;;;;;;;27.36;28.30;95169.22;5052654;28;20260;-75
2022/04/14 05:56:32;;;;;;;11.77;6.78;;;;;;;27.98;27.34;95164.22;5051989;28;20233;-75
2022/04/14 05:59:00;;;;;;;9.80;6.68;;;;;;;28.59;27.15;95175.03;5052719;28;20195;-74
2022/04/14 06:01:33;;;;;;;14.20;6.97;;;;;;;29.19;26.13;95170.97;5051532;28;20222;-72
2022/04/14 06:04:00;;;;;;;15.15;6.63;;;;;;;29.78;25.73;95171.19;5052364;28;20210;-73
2022/04/14 06:06:27;;;;;;;10.65;5.65;;;;;;;30.31;25.32;95168.88;5051491;28;20187;-74
2022/04/14 06:08:54;;;;;;;14.48;6.38;;;;;;;30.84;24.54;95169.88;5052338;28;20233;-75
2022/04/14 06:11:20;;;;;;;10.63;5.63;;;;;;;31.34;23.88;95172.06;5047270;28;20195;-73
2022/04/14 06:13:47;;;;;;;10.02;6.05;;;;;;;31.84;23.26;95169.94;5046537;28;20631;-77
2022/04/14 06:16:15;;;;;;;9.93;5.85;;;;;;;32.34;23.18;95173.75;5049028;28;20276;-77
2022/04/14 06:18:42;;;;;;;16.80;6.38;;;;;;;32.80;22.51;95181.78;5047807;28;20275;-77
2022/04/14 06:21:09;;;;;;;9.05;5.85;;;;;;;33.23;22.28;95177.78;5049050;28;20253;-74
2022/04/14 06:23:36;;;;;;;11.52;6.00;;;;;;;33.66;21.74;95176.34;5049699;28;20195;-75
2022/04/14 06:26:03;;;;;;;13.73;6.75;;;;;;;34.06;21.64;95181.78;5049282;28;20673;-76
2022/04/14 06:28:31;;;;;;;11.27;6.22;;;;;;;34.43;20.97;95176.78;5048620;28;20725;-75
2022/04/14 06:30:58;;;;;;;8.52;5.50;;;;;;;34.81;20.95;95185.03;5048859;28;20203;-74
2022/04/14 06:33:30;;;;;;;7.63;5.32;;;;;;;35.18;20.59;95187.09;5048741;28;20662;-74
2022/04/14 06:35:57;;;;;;;9.25;5.68;;;;;;;35.53;20.27;95192.38;5048975;28;20301;-80
2022/04/14 06:38:26;;;;;;;10.15;5.20;;;;;;;35.84;19.92;95193.63;5049488;28;20243;-75
2022/04/14 06:40:53;;;;;;;9.60;5.30;;;;;;;36.15;19.43;95178.06;5049237;28;20252;-78
2022/04/14 06:43:20;;;;;;;9.57;4.78;;;;;;;36.43;19.27;95188.84;5048955;28;20422;-75
2022/04/14 06:45:47;;;;;;;8.48;5.13;;;;;;;36.65;19.20;95175.72;5048787;28;20396;-78
2022/04/14 06:48:14;;;;;;;8.63;5.43;;;;;;;36.97;18.85;95189.41;5047551;28;20658;-72
2022/04/14 06:50:43;;;;;;;8.18;4.35;;;;;;;37.21;18.67;95192.69;5048489;28;20697;-76
2022/04/14 06:53:10;;;;;;;10.43;4.40;;;;;;;37.45;18.48;95184.56;5048914;28;20278;-76
2022/04/14 06:55:37;;;;;;;6.88;4.90;;;;;;;37.66;18.30;95183.09;5048154;28;20207;-74
2022/04/14 06:58:04;;;;;;;7.15;5.50;;;;;;;37.89;18.02;95186.66;5048351;28;20225;-73
2022/04/14 07:00:31;;;;;;;12.68;4.38;;;;;;;38.09;17.90;95188.09;5047617;28;20204;-74
2022/04/14 07:02:58;;;;;;;7.28;4.57;;;;;;;38.28;17.86;95195.97;5046875;28;20187;-75
2022/04/14 07:05:25;;;;;;;5.45;4.45;;;;;;;38.44;17.65;95199.13;5048448;28;20199;-72
2022/04/14 07:07:54;;;;;;;11.25;5.60;;;;;;;38.59;17.61;95200.66;5046900;28;20520;-74
2022/04/14 07:10:20;;;;;;;5.30;4.50;;;;;;;38.75;17.39;95201.88;5048236;28;20203;-73
2022/04/14 07:12:47;;;;;;;7.18;5.10;;;;;;;38.90;17.34;95203.41;5049094;28;20202;-75
2022/04/14 07:15:15;;;;;;;5.68;4.35;;;;;;;39.01;17.11;95215.44;5048264;28;20194;-73
2022/04/14 07:17:42;;;;;;;7.60;4.30;;;;;;;39.12;17.31;95205.28;5048035;28;20217;-74
2022/04/14 07:20:10;;;;;;;11.50;4.90;;;;;;;39.21;17.00;95205.31;5049949;28;20202;-76
2022/04/14 07:22:44;;;;;;;5.25;4.05;;;;;;;39.25;16.96;95198.28;5050694;28;20241;-75
2022/04/14 07:25:13;;;;;;;5.07;4.20;;;;;;;39.34;16.79;95199.94;5046971;28;20199;-74
2022/04/14 07:27:40;;;;;;;8.00;4.38;;;;;;;39.39;16.63;95210.50;5050666;28;20269;-75
2022/04/14 07:30:08;;;;;;;6.80;4.63;;;;;;;39.43;16.52;95205.31;5050284;28;20202;-74
2022/04/14 07:32:36;;;;;;;6.03;4.07;;;;;;;39.47;16.63;95197.44;5050591;28;20206;-74
2022/04/14 07:35:04;;;;;;;8.38;4.85;;;;;;;39.48;16.46;95191.00;5050380;28;20253;-75
2022/04/14 07:37:31;;;;;;;7.38;4.70;;;;;;;39.50;16.45;95192.25;5049925;28;20601;-73
2022/04/14 07:39:58;;;;;;;8.02;4.40;;;;;;;39.50;16.37;95192.25;5049784;28;20202;-73
2022/04/14 07:42:32;;;;;;;6.45;4.70;;;;;;;39.51;16.38;95190.38;5048994;28;20203;-73
2022/04/14 07:44:59;;;;;;;7.60;4.18;;;;;;;39.50;16.45;95186.91;5047391;28;20248;-75
2022/04/14 07:47:26;;;;;;;9.50;4.03;;;;;;;39.51;16.11;95175.13;5049861;28;20198;-74
2022/04/14 07:49:53;;;;;;;6.38;4.40;;;;;;;39.51;16.12;95176.97;5047785;28;20209;-74
2022/04/14 07:52:20;;;;;;;10.82;5.00;;;;;;;39.50;16.13;95180.75;5049705;28;20212;-75
2022/04/14 07:54:46;;;;;;;5.68;4.50;;;;;;;39.49;16.28;95171.94;5050322;28;20560;-73
2022/04/14 07:57:13;;;;;;;7.20;4.45;;;;;;;39.48;16.35;95173.06;5049540;28;20219;-76
2022/04/14 07:59:41;;;;;;;8.23;4.70;;;;;;;39.48;15.89;95174.94;5049427;28;20198;-74
2022/04/14 08:02:09;;;;;;;10.15;4.00;;;;;;;39.44;16.19;95176.66;5049745;28;20194;-75
2022/04/14 08:04:37;;;;;;;4.97;4.00;;;;;;;39.39;16.00;95180.25;5046871;28;20191;-73
2022/04/14 08:07:05;;;;;;;9.63;4.47;;;;;;;39.32;15.96;95178.03;5049132;28;20589;-74
2022/04/14 08:09:31;;;;;;;6.07;4.65;;;;;;;39.15;16.05;95162.63;5047141;28;20234;-75
2022/04/14 08:11:58;;;;;;;7.32;4.57;;;;;;;39.06;16.27;95174.41;5049453;28;20206;-72
2022/04/14 08:14:27;;;;;;;8.38;4.40;;;;;;;38.94;16.14;95171.50;5049391;28;20297;-75
2022/04/14 08:16:58;;;;;;;10.70;5.07;;;;;;;38.80;15.96;95169.69;5049352;28;20230;-73
2022/04/14 08:19:25;;;;;;;4.93;4.07;;;;;;;38.64;16.20;95163.88;5047389;28;20195;-78
2022/04/14 08:21:52;;;;;;;7.28;4.82;;;;;;;38.45;16.44;95173.19;5049158;28;20198;-75
2022/04/14 08:24:22;;;;;;;10.20;5.10;;;;;;;38.26;16.32;95166.09;5048940;28;20183;-75
2022/04/14 08:26:49;;;;;;;11.65;4.93;;;;;;;38.05;16.23;95160.41;5049382;28;20202;-77
2022/04/14 08:29:16;;;;;;;7.22;4.50;;;;;;;37.93;16.53;95164.69;5049722;28;20206;-73
2022/04/14 08:31:50;;;;;;;7.53;4.40;;;;;;;37.76;16.33;95166.06;5049297;28;20187;-73
2022/04/14 08:34:18;;;;;;;8.25;4.28;;;;;;;37.58;16.46;95166.97;5044735;28;20263;-77
2022/04/14 08:36:55;;;;;;;8.52;4.47;;;;;;;37.40;16.35;95166.78;5048513;28;20258;-75
2022/04/14 08:39:22;;;;;;;9.15;5.30;;;;;;;37.22;16.61;95161.47;5046649;28;20201;-74
2022/04/14 08:41:57;;;;;;;9.00;4.97;;;;;;;37.03;16.79;95166.88;5046022;28;20669;-74
2022/04/14 08:44:29;;;;;;;7.97;4.70;;;;;;;36.85;16.63;95166.63;5049001;28;20202;-74
2022/04/14 08:46:58;;;;;;;8.80;4.82;;;;;;;36.66;16.77;95165.88;5049123;28;20655;-74
2022/04/14 08:49:27;;;;;;;8.35;4.80;;;;;;;36.48;16.85;95150.69;5048832;28;20198;-73
2022/04/14 08:52:03;;;;;;;8.13;4.60;;;;;;;36.26;17.05;95152.06;5048783;28;20191;-74
2022/04/14 08:54:31;;;;;;;6.80;5.28;;;;;;;36.07;16.92;95157.41;5046516;28;20704;-75
2022/04/14 08:56:59;;;;;;;8.60;4.68;;;;;;;35.86;17.04;95146.19;5049147;28;20640;-79
2022/04/14 08:59:28;;;;;;;6.22;4.32;;;;;;;35.64;16.72;95152.06;5048633;28;20272;-75
2022/04/14 09:02:04;;;;;;;9.25;4.60;;;;;;;35.41;16.90;95150.97;5045520;28;20202;-74
2022/04/14 09:04:33;;;;;;;8.63;4.97;;;;;;;35.18;17.25;95149.09;5047804;28;20289;-83
2022/04/14 09:06:59;;;;;;;8.00;4.63;;;;;;;34.93;17.25;95124.31;5046483;28;20741;-79
2022/04/14 09:09:26;;;;;;;4.88;4.10;;;;;;;34.68;17.25;95130.66;5043144;28;20215;-79
2022/04/14 09:11:53;;;;;;;5.38;4.10;;;;;;;34.44;17.28;95133.19;5049675;28;20573;-80
2022/04/14 09:14:39;;;;;;;10.82;4.60;;;;;;;34.14;17.50;95112.19;5051868;28;20195;-81
2022/04/14 09:17:06;;;;;;;6.32;4.50;;;;;;;33.94;17.43;95124.50;5049246;28;20693;-80
2022/04/14 09:19:35;;;;;;;10.13;5.40;;;;;;;33.73;17.78;95127.53;5050474;28;20210;-79
2022/04/14 09:22:04;;;;;;;7.57;4.65;;;;;;;33.45;17.94;95122.59;5050535;28;20194;-82
2022/04/14 09:24:45;;;;;;;7.80;4.97;;;;;;;33.17;17.82;95117.88;5050434;28;20209;-78
2022/04/14 09:27:24;;;;;;;6.15;4.53;;;;;;;32.94;17.95;95120.03;5058411;28;20195;-75
2022/04/14 09:29:52;;;;;;;11.70;5.57;;;;;;;32.69;18.43;95112.13;5053351;28;20197;-78
2022/04/14 09:32:30;;;;;;;7.68;5.00;;;;;;;32.44;18.10;95115.56;5051715;28;20191;-76
2022/04/14 09:34:59;;;;;;;10.23;5.03;;;;;;;32.20;18.74;95120.53;5051374;28;20295;-78
2022/04/14 09:37:27;;;;;;;7.65;4.50;;;;;;;31.78;18.59;95084.47;5050011;28;20227;-74
2022/04/14 09:39:56;;;;;;;5.60;4.75;;;;;;;31.61;18.68;95097.13;5050963;28;20199;-74
2022/04/14 09:42:24;;;;;;;6.22;3.88;;;;;;;31.40;19.11;95107.59;5050582;28;20199;-74
2022/04/14 09:44:52;;;;;;;13.52;5.35;;;;;;;31.13;18.74;95105.09;5051313;28;20199;-80
2022/04/14 09:47:27;;;;;;;8.75;4.60;;;;;;;30.88;18.85;95108.38;5050162;28;20183;-75
2022/04/14 09:49:54;;;;;;;7.45;4.35;;;;;;;30.63;19.28;95102.88;5050548;28;20186;-73
2022/04/14 09:52:22;;;;;;;7.50;4.30;;;;;;;30.40;19.34;95098.75;5050468;28;20194;-73
2022/04/14 09:54:50;;;;;;;5.03;3.85;;;;;;;30.20;19.52;95099.38;5051688;28;20187;-76
2022/04/14 09:57:18;;;;;;;4.03;3.45;;;;;;;29.99;19.50;95098.34;5050317;28;20215;-72
2022/04/14 09:59:44;;;;;;;6.68;3.85;;;;;;;29.78;19.90;95091.28;5049491;28;20202;-74
2022/04/14 10:02:13;;;;;;;7.28;3.60;;;;;;;29.60;19.87;95087.16;5050513;28;20257;-77
2022/04/14 10:04:41;;;;;;;4.00;3.40;;;;;;;29.38;19.68;95082.66;5050751;28;20191;-76
2022/04/14 10:07:11;;;;;;;5.18;3.83;;;;;;;29.19;19.88;95076.91;5050604;28;20203;-79
2022/04/14 10:09:42;;;;;;;6.05;3.80;;;;;;;28.99;20.10;95068.75;5042560;28;20242;-81
2022/04/14 10:12:30;;;;;;;7.53;3.83;;;;;;;28.85;20.25;95073.53;5047320;28;20211;-80
2022/04/14 10:15:02;;;;;;;4.72;2.88;;;;;;;28.66;20.28;95073.00;5048010;28;20187;-80
2022/04/14 10:17:35;;;;;;;5.18;3.10;;;;;;;28.50;20.67;95071.19;5049307;28;20968;-76
2022/04/14 10:20:03;;;;;;;8.73;3.80;;;;;;;28.35;20.77;95065.66;5049646;28;20658;-78
2022/04/14 10:22:31;;;;;;;4.05;3.45;;;;;;;28.21;20.52;95071.22;5047044;28;20224;-88
2022/04/14 10:25:01;;;;;;;5.40;3.65;;;;;;;28.08;21.08;95065.50;5049672;28;20187;-90
2022/04/14 10:27:29;;;;;;;3.25;2.95;;;;;;;27.90;20.87;95067.28;5057601;28;20251;-88
2022/04/14 10:29:57;;;;;;;4.80;3.10;;;;;;;27.71;20.85;95065.84;5050701;28;20194;-89
2022/04/14 10:32:26;;;;;;;10.07;3.63;;;;;;;27.57;21.30;95064.56;5051778;28;20203;-79
2022/04/14 10:34:53;;;;;;;6.30;3.40;;;;;;;27.44;21.14;95066.41;5052188;28;20190;-82
2022/04/14 10:37:25;;;;;;;5.93;3.83;;;;;;;27.30;21.60;95061.69;5050529;28;20228;-83
2022/04/14 10:39:52;;;;;;;3.97;3.58;;;;;;;27.18;21.40;95057.25;5050659;28;20198;-78
2022/04/14 10:42:27;;;;;;;5.53;2.67;;;;;;;27.09;21.59;95060.44;5056152;28;20198;-80
2022/04/14 10:44:56;;;;;;;5.03;3.42;;;;;;;26.99;21.62;95066.28;5049971;28;20206;-85
2022/04/14 10:47:56;;;;;;;4.53;3.00;;;;;;;26.87;21.57;95063.69;5048706;28;20206;-76
2022/04/14 10:50:25;;;;;;;3.83;3.13;;;;;;;26.76;21.43;95060.00;4969308;28;20736;-79
2022/04/14 10:53:02;;;;;;;5.28;3.78;;;;;;;26.67;21.90;95063.22;4968502;28;20206;-83
2022/04/14 10:55:41;;;;;;;9.27;3.53;;;;;;;26.59;21.87;95061.72;4972070;28;20193;-83
2022/04/14 10:58:48;;;;;;;3.83;3.47;;;;;;;26.51;21.99;95056.81;4974451;28;20221;-81
2022/04/14 11:01:15;;;;;;;5.47;3.33;;;;;;;26.44;22.01;95061.41;4970657;28;20682;-84
2022/04/14 11:03:46;;;;;;;4.07;3.40;;;;;;;26.36;21.79;95057.25;4971265;28;20819;-81
2022/04/14 11:06:51;;;;;;;3.17;2.88;;;;;;;26.24;21.88;95049.38;4967624;28;20194;-78
2022/04/14 11:09:50;;;;;;;5.05;3.30;;;;;;;26.18;22.03;95052.91;4968310;28;20234;-77
2022/04/14 11:12:19;;;;;;;5.78;3.25;;;;;;;26.12;22.07;95056.44;4967746;28;20189;-87
2022/04/14 11:14:50;;;;;;;3.90;3.28;;;;;;;26.05;22.39;95047.88;4967207;28;20324;-74
2022/04/14 11:17:57;;;;;;;6.57;3.20;;;;;;;26.00;22.19;95043.31;4967544;28;20293;-73
2022/04/14 11:20:44;;;;;;;5.63;3.28;;;;;;;25.89;22.23;95043.28;4973135;28;20192;-79
2022/04/14 11:23:12;;;;;;;4.70;3.30;;;;;;;25.82;22.24;95040.75;4964297;28;20237;-75
2022/04/14 11:25:49;;;;;;;4.25;3.20;;;;;;;25.76;22.30;95039.00;4967175;28;20689;-78
2022/04/14 11:28:25;;;;;;;7.68;3.15;;;;;;;25.70;22.36;95040.69;5043294;28;20198;-82
2022/04/14 11:30:55;;;;;;;7.18;3.25;;;;;;;25.65;22.73;95027.47;5046707;28;20301;-76
2022/04/14 11:33:27;;;;;;;5.30;3.38;;;;;;;25.63;22.69;95031.31;5043614;28;20191;-81
2022/04/14 11:35:55;;;;;;;5.63;3.72;;;;;;;25.56;22.71;95030.59;5050503;28;20812;-88
2022/04/14 11:38:51;;;;;;;7.68;3.35;;;;;;;25.52;22.59;95032.91;5048227;28;20701;-82
2022/04/14 11:41:42;;;;;;;4.80;3.70;;;;;;;25.47;22.67;95036.16;5048364;28;20277;-79
2022/04/14 11:44:11;;;;;;;5.07;3.78;;;;;;;25.45;22.94;95037.41;5048987;28;20199;-88
2022/04/14 11:46:48;;;;;;;7.93;3.97;;;;;;;25.39;22.70;95035.66;5049419;28;20248;-75